createdAt,value
2019-04-23T00:00:17.056Z,10.20
2019-04-23T00:05:21.150Z,10.20
2019-04-23T00:10:28.610Z,10.10
2019-04-23T00:16:02.988Z,10.10
2019-04-23T00:21:23.563Z,10.10
2019-04-23T00:26:30.613Z,10.00
2019-04-23T00:31:31.738Z,10.00
2019-04-23T00:41:52.890Z,10.00
2019-04-23T00:46:55.686Z,9.90
2019-04-23T00:52:15.158Z,9.80
2019-04-23T01:02:23.229Z,9.70
2019-04-23T01:07:33.603Z,9.60
2019-04-23T01:12:46.702Z,9.50
2019-04-23T01:17:53.345Z,9.50
2019-04-23T01:22:40.386Z,9.50
2019-04-23T01:28:23.616Z,9.50
2019-04-23T01:33:35.399Z,9.50
2019-04-23T01:38:41.845Z,9.50
2019-04-23T01:43:47.769Z,9.30
2019-04-23T01:54:02.962Z,9.10
2019-04-23T01:59:16.609Z,9.00
2019-04-23T02:04:25.024Z,8.80
2019-04-23T02:09:36.905Z,8.80
2019-04-23T02:14:42.349Z,8.70
2019-04-23T02:19:53.205Z,8.60
2019-04-23T02:25:02.100Z,8.60
2019-04-23T02:56:01.800Z,8.20
2019-04-23T03:11:25.650Z,8.10
2019-04-23T03:16:54.726Z,8.00
2019-04-23T03:27:19.247Z,8.00
2019-04-23T03:42:38.654Z,7.80
2019-04-23T03:57:52.255Z,7.90
2019-04-23T04:03:27.906Z,7.90
2019-04-23T04:13:30.982Z,7.90
2019-04-23T04:28:56.524Z,8.00
2019-04-23T04:34:14.794Z,8.00
2019-04-23T04:39:19.533Z,8.10
2019-04-23T04:44:36.146Z,8.20
2019-04-23T04:49:49.386Z,8.30
2019-04-23T04:59:39.730Z,8.50
2019-04-23T05:05:08.725Z,8.70
2019-04-23T05:15:03.023Z,9.10
2019-04-23T05:25:12.403Z,9.50
2019-04-23T05:30:34.976Z,9.70
2019-04-23T05:35:46.669Z,9.90
2019-04-23T05:40:52.037Z,10.20
2019-04-23T05:45:46.779Z,10.60
2019-04-23T06:17:03.850Z,12.70
2019-04-23T06:22:20.659Z,12.80
2019-04-23T06:27:22.159Z,13.00
2019-04-23T06:32:24.255Z,13.00
2019-04-23T06:37:49.427Z,13.20
2019-04-23T06:43:05.352Z,13.30
2019-04-23T06:48:25.743Z,13.60
2019-04-23T06:53:27.369Z,13.60
2019-04-23T06:58:37.508Z,13.60
2019-04-23T07:03:55.743Z,13.90
2019-04-23T07:13:58.512Z,14.20
2019-04-23T07:19:18.606Z,14.50
2019-04-23T07:24:19.766Z,14.30
2019-04-23T07:34:39.321Z,14.70
2019-04-23T07:45:34.917Z,14.80
2019-04-23T07:50:44.144Z,14.80
2019-04-23T08:01:01.620Z,15.40
2019-04-23T08:37:27.307Z,16.30
2019-04-23T08:42:38.498Z,16.50
2019-04-23T08:47:56.494Z,16.50
2019-04-23T08:53:08.680Z,16.60
2019-04-23T08:58:10.696Z,16.50
2019-04-23T09:03:22.481Z,16.80
2019-04-23T09:08:29.494Z,16.90
2019-04-23T09:18:38.372Z,16.70
2019-04-23T09:29:31.838Z,16.80
2019-04-23T09:34:27.559Z,16.70
2019-04-23T09:39:51.232Z,17.20
2019-04-23T09:45:03.712Z,17.40
2019-04-23T09:55:33.626Z,18.00
2019-04-23T10:05:31.370Z,19.30
2019-04-23T10:10:28.171Z,19.40
2019-04-23T10:15:38.825Z,20.00
2019-04-23T10:20:44.576Z,19.70
2019-04-23T10:25:52.244Z,19.20
2019-04-23T10:30:58.954Z,19.50
2019-04-23T10:36:10.985Z,20.00
2019-04-23T10:41:14.236Z,19.80
2019-04-23T10:47:26.677Z,19.80
2019-04-23T10:52:57.033Z,20.20
2019-04-23T10:57:31.079Z,20.70
2019-04-23T11:02:48.816Z,20.90
2019-04-23T11:07:47.210Z,20.50
2019-04-23T11:13:21.594Z,21.00
2019-04-23T11:18:41.606Z,20.90
2019-04-23T11:23:34.571Z,20.80
2019-04-23T11:28:38.362Z,20.30
2019-04-23T11:34:13.370Z,19.90
2019-04-23T11:44:13.354Z,20.00
2019-04-23T11:49:34.548Z,19.50
2019-04-23T11:54:27.749Z,19.90
2019-04-23T11:59:36.384Z,19.30
2019-04-23T12:10:04.787Z,19.10
2019-04-23T12:20:21.436Z,18.70
2019-04-23T12:25:31.184Z,19.10
2019-04-23T12:30:42.091Z,19.20
2019-04-23T12:35:40.435Z,19.50
2019-04-23T12:40:55.897Z,19.40
2019-04-23T12:45:57.827Z,19.60
2019-04-23T12:51:24.376Z,19.50
2019-04-23T12:56:32.002Z,19.50
2019-04-23T13:01:32.830Z,19.60
2019-04-23T13:06:39.190Z,19.60
2019-04-23T13:11:53.006Z,19.80
2019-04-23T13:17:02.069Z,19.40
2019-04-23T13:22:10.664Z,19.70
2019-04-23T13:27:23.311Z,19.60
2019-04-23T13:32:21.550Z,19.70
2019-04-23T13:37:36.970Z,20.00
2019-04-23T14:03:09.532Z,19.60
2019-04-23T14:08:33.538Z,19.70
2019-04-23T14:13:44.070Z,19.90
2019-04-23T14:18:51.607Z,19.70
2019-04-23T14:24:04.669Z,19.20
2019-04-23T14:28:51.222Z,19.10
2019-04-23T14:34:04.784Z,19.20
2019-04-23T14:39:09.810Z,19.10
2019-04-23T14:44:18.470Z,19.40
2019-04-23T14:50:21.089Z,19.00
2019-04-23T15:00:18.580Z,19.50
2019-04-23T15:05:23.712Z,19.10
2019-04-23T15:10:34.369Z,19.10
2019-04-23T15:15:44.282Z,19.10
2019-04-23T15:21:08.570Z,19.30
2019-04-23T15:26:47.841Z,19.40
2019-04-23T15:31:20.784Z,19.30
2019-04-23T15:36:38.860Z,19.00
2019-04-23T15:46:56.684Z,19.20
2019-04-23T15:56:55.086Z,18.40
2019-04-23T16:01:41.869Z,17.80
2019-04-23T16:06:43.790Z,17.30
2019-04-23T16:12:09.766Z,17.00
2019-04-23T16:17:29.092Z,17.00
2019-04-23T16:27:42.598Z,17.10
2019-04-23T16:33:08.805Z,17.20
2019-04-23T16:48:46.246Z,16.90
2019-04-23T16:53:29.621Z,16.80
2019-04-23T17:04:00.706Z,16.20
2019-04-23T17:14:13.422Z,15.80
2019-04-23T17:19:26.214Z,15.70
2019-04-23T17:24:23.111Z,15.60
2019-04-23T17:29:35.225Z,15.60
2019-04-23T17:35:02.461Z,15.20
2019-04-23T17:40:12.283Z,15.00
2019-04-23T17:50:20.138Z,14.70
2019-04-23T17:55:33.233Z,14.50
2019-04-23T18:00:40.259Z,14.30
2019-04-23T18:05:54.649Z,14.20
2019-04-23T18:11:07.598Z,14.00
2019-04-23T18:16:09.662Z,13.80
2019-04-23T18:21:37.745Z,13.70
2019-04-23T18:26:56.794Z,13.60
2019-04-23T18:32:09.503Z,13.50
2019-04-23T18:37:10.729Z,13.40
2019-04-23T18:42:28.666Z,13.30
2019-04-23T18:47:33.615Z,13.20
2019-04-23T18:52:40.884Z,13.10
2019-04-23T18:57:45.759Z,13.00
2019-04-23T19:03:21.831Z,12.90
2019-04-23T19:08:53.202Z,12.80
2019-04-23T19:23:54.728Z,12.70
2019-04-23T19:29:13.938Z,12.60
2019-04-23T19:34:35.724Z,12.50
2019-04-23T19:39:29.545Z,12.50
2019-04-23T19:44:40.367Z,12.50
2019-04-23T19:54:55.397Z,12.40
2019-04-23T19:59:58.129Z,12.40
2019-04-23T20:05:08.746Z,12.40
2019-04-23T20:10:16.818Z,12.40
2019-04-23T20:15:35.944Z,12.40
2019-04-23T20:20:45.435Z,12.40
2019-04-23T20:32:06.298Z,12.30
2019-04-23T20:41:56.457Z,12.30
2019-04-23T20:47:00.203Z,12.30
2019-04-23T20:52:04.845Z,12.30
2019-04-23T20:57:39.164Z,12.20
2019-04-23T21:07:59.319Z,12.10
2019-04-23T21:18:15.606Z,12.10
2019-04-23T21:28:37.305Z,12.00
2019-04-23T21:33:47.901Z,11.90
2019-04-23T21:49:41.265Z,11.70
2019-04-23T21:54:22.999Z,11.70
2019-04-23T21:59:34.452Z,11.60
2019-04-23T22:04:44.768Z,11.60
2019-04-23T22:09:56.334Z,11.50
2019-04-23T22:14:57.779Z,11.40
2019-04-23T22:20:14.451Z,11.40
2019-04-23T22:25:13.216Z,11.40
2019-04-23T22:30:36.581Z,11.40
2019-04-23T22:35:43.211Z,11.50
2019-04-23T22:40:49.739Z,11.40
2019-04-23T22:45:59.534Z,11.40
2019-04-23T22:51:10.928Z,11.30
2019-04-23T23:11:51.088Z,11.20
2019-04-23T23:27:10.302Z,11.20
2019-04-23T23:32:24.420Z,11.30
2019-04-23T23:37:27.734Z,11.30
2019-04-23T23:42:34.713Z,11.40
2019-04-23T23:47:43.061Z,11.40
2019-04-23T23:53:03.995Z,11.50
